createdAt,value
2018-05-04T00:00:18.184Z,70.81
2018-05-04T00:01:18.131Z,70.97
2018-05-04T00:02:18.083Z,71.06
2018-05-04T00:03:18.069Z,70.87
2018-05-04T00:04:18.018Z,71.06
2018-05-04T00:05:17.942Z,71.25
2018-05-04T00:06:17.895Z,71.82
2018-05-04T00:07:17.855Z,71.44
2018-05-04T00:08:17.790Z,72.01
2018-05-04T00:09:17.784Z,72.01
2018-05-04T00:10:17.689Z,71.72
2018-05-04T00:11:17.646Z,72.01
2018-05-04T00:12:17.589Z,72.20
2018-05-04T00:13:17.540Z,72.11
2018-05-04T00:14:17.526Z,72.20
2018-05-04T00:15:17.483Z,72.11
2018-05-04T00:16:17.393Z,72.77
2018-05-04T00:17:17.343Z,72.39
2018-05-04T00:18:17.300Z,72.49
2018-05-04T00:19:17.247Z,72.49
2018-05-04T00:20:17.249Z,72.58
2018-05-04T00:21:17.148Z,72.20
2018-05-04T00:22:17.098Z,72.49
2018-05-04T00:23:17.047Z,72.20
2018-05-04T00:24:16.995Z,72.49
2018-05-04T00:25:16.988Z,72.67
2018-05-04T00:26:16.930Z,72.58
2018-05-04T00:27:16.851Z,72.67
2018-05-04T00:28:16.808Z,72.67
2018-05-04T00:29:16.758Z,72.39
2018-05-04T00:30:16.716Z,72.58
2018-05-04T00:31:16.686Z,72.67
2018-05-04T00:32:16.601Z,72.39
2018-05-04T00:33:16.554Z,72.96
2018-05-04T00:34:16.500Z,72.58
2018-05-04T00:35:16.453Z,72.77
2018-05-04T00:36:16.439Z,73.25
2018-05-04T00:37:16.358Z,72.64
2018-05-04T00:38:16.313Z,72.45
2018-05-04T00:39:16.254Z,72.67
2018-05-04T00:40:16.222Z,72.86
2018-05-04T00:41:16.196Z,72.11
2018-05-04T00:42:16.105Z,72.11
2018-05-04T00:43:16.058Z,72.39
2018-05-04T00:44:16.014Z,72.77
2018-05-04T00:45:15.958Z,72.96
2018-05-04T00:46:15.940Z,73.21
2018-05-04T00:47:15.860Z,73.11
2018-05-04T00:48:15.819Z,72.16
2018-05-04T00:49:15.802Z,72.83
2018-05-04T00:50:15.713Z,72.92
2018-05-04T00:51:15.665Z,72.86
2018-05-04T00:52:15.609Z,72.92
2018-05-04T00:53:15.563Z,73.21
2018-05-04T00:54:15.544Z,73.11
2018-05-04T00:55:15.460Z,73.11
2018-05-04T00:56:15.408Z,72.74
2018-05-04T00:57:15.405Z,73.11
2018-05-04T00:58:15.347Z,73.21
2018-05-04T00:59:15.271Z,73.30
2018-05-04T01:00:15.217Z,73.30
2018-05-04T01:01:15.164Z,72.92
2018-05-04T01:02:15.150Z,73.02
2018-05-04T01:03:15.067Z,73.30
2018-05-04T01:04:15.020Z,73.40
2018-05-04T01:05:15.018Z,73.21
2018-05-04T01:06:14.914Z,72.92
2018-05-04T01:07:14.873Z,73.97
2018-05-04T01:08:14.818Z,73.11
2018-05-04T01:09:14.766Z,73.21
2018-05-04T01:10:14.755Z,73.21
2018-05-04T01:11:14.666Z,73.21
2018-05-04T01:12:14.620Z,73.97
2018-05-04T01:13:14.562Z,73.88
2018-05-04T01:14:14.553Z,73.21
2018-05-04T01:15:14.474Z,73.59
2018-05-04T01:16:14.417Z,73.69
2018-05-04T01:17:14.367Z,74.07
2018-05-04T01:18:14.316Z,74.82
2018-05-04T01:19:14.310Z,74.44
2018-05-04T01:20:14.216Z,74.54
2018-05-04T01:21:14.168Z,74.73
2018-05-04T01:22:14.121Z,74.26
2018-05-04T01:23:14.063Z,74.44
2018-05-04T01:24:14.054Z,74.54
2018-05-04T01:25:13.969Z,74.54
2018-05-04T01:26:13.922Z,74.51
2018-05-04T01:27:13.868Z,74.51
2018-05-04T01:28:13.820Z,75.36
2018-05-04T01:29:13.808Z,74.98
2018-05-04T01:30:13.717Z,75.55
2018-05-04T01:31:13.665Z,75.26
2018-05-04T01:32:13.619Z,75.55
2018-05-04T01:33:13.569Z,75.55
2018-05-04T01:34:13.562Z,75.26
2018-05-04T01:35:13.465Z,75.36
2018-05-04T01:36:13.448Z,75.45
2018-05-04T01:37:13.367Z,75.74
2018-05-04T01:38:13.321Z,75.74
2018-05-04T01:39:13.275Z,75.26
2018-05-04T01:40:13.268Z,75.17
2018-05-04T01:41:13.173Z,75.17
2018-05-04T01:42:13.118Z,75.17
2018-05-04T01:43:13.068Z,75.45
2018-05-04T01:44:13.016Z,74.98
2018-05-04T01:45:13.002Z,75.26
2018-05-04T01:46:12.915Z,75.93
2018-05-04T01:47:12.867Z,75.55
2018-05-04T01:48:12.825Z,75.26
2018-05-04T01:49:12.768Z,75.93
2018-05-04T01:50:12.749Z,75.84
2018-05-04T01:51:12.669Z,76.12
2018-05-04T01:52:12.622Z,76.03
2018-05-04T01:53:12.565Z,76.12
2018-05-04T01:54:12.518Z,75.74
2018-05-04T01:55:12.514Z,75.99
2018-05-04T01:56:12.414Z,75.93
2018-05-04T01:57:12.371Z,76.03
2018-05-04T01:58:12.320Z,76.12
2018-05-04T01:59:12.262Z,76.03
2018-05-04T02:00:12.260Z,75.89
2018-05-04T02:01:12.171Z,75.89
2018-05-04T02:02:12.118Z,76.08
2018-05-04T02:03:12.061Z,75.89
2018-05-04T02:04:12.017Z,77.51
2018-05-04T02:05:12.007Z,77.22
2018-05-04T02:06:11.916Z,77.51
2018-05-04T02:07:11.866Z,77.41
2018-05-04T02:08:11.813Z,77.70
2018-05-04T02:09:11.797Z,77.89
2018-05-04T02:10:11.709Z,77.89
2018-05-04T02:11:11.693Z,77.51
2018-05-04T02:12:11.611Z,76.84
2018-05-04T02:13:11.556Z,77.31
2018-05-04T02:14:11.505Z,77.51
2018-05-04T02:15:11.459Z,77.41
2018-05-04T02:16:11.449Z,77.70
2018-05-04T02:17:11.359Z,77.70
2018-05-04T02:18:11.307Z,78.27
2018-05-04T02:19:11.257Z,77.89
2018-05-04T02:20:11.216Z,77.70
2018-05-04T02:21:11.197Z,77.22
2018-05-04T02:22:11.109Z,76.56
2018-05-04T02:23:11.057Z,77.79
2018-05-04T02:24:11.018Z,77.70
2018-05-04T02:25:10.960Z,77.31
2018-05-04T02:26:10.967Z,77.51
2018-05-04T02:27:10.859Z,77.22
2018-05-04T02:28:10.805Z,78.03
2018-05-04T02:29:10.754Z,78.13
2018-05-04T02:30:10.701Z,78.61
2018-05-04T02:31:10.695Z,78.70
2018-05-04T02:32:10.609Z,78.61
2018-05-04T02:33:10.565Z,78.70
2018-05-04T02:34:10.508Z,79.46
2018-05-04T02:35:10.453Z,78.70
2018-05-04T02:36:10.439Z,78.89
2018-05-04T02:37:10.384Z,79.46
2018-05-04T02:38:10.297Z,79.27
2018-05-04T02:39:10.252Z,79.27
2018-05-04T02:40:10.201Z,79.27
2018-05-04T02:41:10.185Z,79.36
2018-05-04T02:42:10.093Z,78.51
2018-05-04T02:43:10.050Z,78.61
2018-05-04T02:44:09.994Z,79.36
2018-05-04T02:45:09.944Z,79.36
2018-05-04T02:46:09.942Z,79.22
2018-05-04T02:47:09.847Z,79.50
2018-05-04T02:48:09.789Z,79.31
2018-05-04T02:49:09.742Z,79.03
2018-05-04T02:50:09.693Z,78.42
2018-05-04T02:51:09.673Z,78.64
2018-05-04T02:52:09.597Z,78.83
2018-05-04T02:53:09.574Z,78.64
2018-05-04T02:54:09.486Z,79.22
2018-05-04T02:55:09.441Z,79.36
2018-05-04T02:56:09.388Z,78.64
2018-05-04T02:57:09.368Z,78.83
2018-05-04T02:58:09.280Z,78.89
2018-05-04T02:59:09.265Z,78.70
2018-05-04T03:00:09.183Z,78.42
2018-05-04T03:01:09.134Z,78.99
2018-05-04T03:02:09.100Z,79.08
2018-05-04T03:03:09.074Z,79.65
2018-05-04T03:04:08.984Z,80.03
2018-05-04T03:05:08.936Z,79.65
2018-05-04T03:06:08.874Z,78.99
2018-05-04T03:07:08.824Z,79.74
2018-05-04T03:08:08.816Z,79.65
2018-05-04T03:09:08.719Z,80.03
2018-05-04T03:10:08.681Z,78.80
2018-05-04T03:11:08.619Z,79.65
2018-05-04T03:12:08.611Z,79.17
2018-05-04T03:13:08.521Z,79.27
2018-05-04T03:14:08.469Z,79.46
2018-05-04T03:15:08.464Z,79.46
2018-05-04T03:16:08.364Z,79.46
2018-05-04T03:17:08.313Z,78.80
2018-05-04T03:18:08.272Z,78.51
2018-05-04T03:19:08.214Z,78.99
2018-05-04T03:20:08.194Z,78.80
2018-05-04T03:21:08.116Z,78.80
2018-05-04T03:22:08.128Z,78.80
2018-05-04T03:23:08.020Z,78.80
2018-05-04T03:24:08.001Z,79.55
2018-05-04T03:25:07.916Z,79.84
2018-05-04T03:26:07.923Z,79.55
2018-05-04T03:27:07.806Z,79.65
2018-05-04T03:28:07.762Z,79.27
2018-05-04T03:29:07.715Z,79.08
2018-05-04T03:30:07.662Z,79.08
2018-05-04T03:31:07.639Z,79.55
2018-05-04T03:32:07.554Z,79.08
2018-05-04T03:33:07.502Z,79.55
2018-05-04T03:34:07.448Z,79.08
2018-05-04T03:35:07.405Z,79.74
2018-05-04T03:36:07.394Z,79.94
2018-05-04T03:37:07.292Z,79.80
2018-05-04T03:38:07.243Z,79.99
2018-05-04T03:39:07.195Z,80.46
2018-05-04T03:40:07.140Z,80.27
2018-05-04T03:41:07.134Z,80.18
2018-05-04T03:42:07.047Z,80.46
2018-05-04T03:43:06.998Z,80.37
2018-05-04T03:44:06.941Z,80.65
2018-05-04T03:45:06.895Z,80.37
2018-05-04T03:46:06.870Z,81.04
2018-05-04T03:47:06.781Z,80.84
2018-05-04T03:48:06.729Z,80.75
2018-05-04T03:49:06.684Z,80.75
2018-05-04T03:50:06.628Z,80.37
2018-05-04T03:51:06.620Z,80.65
2018-05-04T03:52:06.596Z,80.75
2018-05-04T03:53:06.475Z,80.94
2018-05-04T03:54:06.427Z,80.65
2018-05-04T03:55:06.428Z,80.75
2018-05-04T03:56:06.324Z,80.84
2018-05-04T03:57:06.271Z,80.65
2018-05-04T03:58:06.230Z,80.56
2018-05-04T03:59:06.176Z,80.75
2018-05-04T04:00:08.220Z,80.56
2018-05-04T04:01:06.071Z,80.37
2018-05-04T04:02:06.018Z,81.41
2018-05-04T04:03:05.959Z,81.70
2018-05-04T04:04:05.920Z,81.98
2018-05-04T04:05:05.865Z,82.08
2018-05-04T04:06:05.850Z,81.88
2018-05-04T04:07:05.756Z,81.60
2018-05-04T04:08:05.758Z,81.60
2018-05-04T04:09:05.653Z,81.70
2018-05-04T04:10:05.601Z,80.94
2018-05-04T04:11:05.551Z,81.13
2018-05-04T04:12:05.496Z,80.94
2018-05-04T04:13:05.486Z,80.65
2018-05-04T04:14:05.431Z,81.51
2018-05-04T04:15:05.352Z,81.70
2018-05-04T04:16:05.298Z,81.41
2018-05-04T04:17:05.239Z,81.51
2018-05-04T04:18:05.253Z,81.70
2018-05-04T04:19:05.184Z,81.60
2018-05-04T04:20:05.087Z,81.51
2018-05-04T04:21:05.042Z,81.51
2018-05-04T04:22:04.995Z,82.08
2018-05-04T04:23:04.930Z,81.79
2018-05-04T04:24:04.916Z,81.51
2018-05-04T04:25:04.835Z,82.08
2018-05-04T04:26:04.830Z,81.98
2018-05-04T04:27:04.729Z,81.88
2018-05-04T04:28:04.676Z,82.55
2018-05-04T04:29:04.642Z,82.27
2018-05-04T04:30:04.569Z,82.55
2018-05-04T04:31:04.556Z,82.93
2018-05-04T04:32:04.472Z,82.93
2018-05-04T04:33:04.453Z,82.55
2018-05-04T04:34:04.368Z,82.17
2018-05-04T04:35:04.316Z,82.08
2018-05-04T04:36:04.267Z,81.88
2018-05-04T04:37:04.215Z,82.27
2018-05-04T04:38:04.199Z,81.88
2018-05-04T04:39:04.115Z,82.08
2018-05-04T04:40:04.100Z,81.98
2018-05-04T04:41:04.017Z,82.65
2018-05-04T04:42:03.952Z,82.55
2018-05-04T04:43:03.948Z,83.03
2018-05-04T04:44:03.850Z,83.03
2018-05-04T04:45:03.799Z,83.12
2018-05-04T04:46:03.788Z,82.27
2018-05-04T04:47:03.703Z,82.27
2018-05-04T04:48:03.651Z,82.84
2018-05-04T04:49:03.629Z,82.93
2018-05-04T04:50:03.571Z,82.27
2018-05-04T04:51:03.506Z,82.27
2018-05-04T04:52:03.449Z,81.70
2018-05-04T04:53:03.388Z,81.88
2018-05-04T04:54:03.390Z,81.41
2018-05-04T04:55:03.290Z,81.04
2018-05-04T04:56:03.233Z,81.07
2018-05-04T04:57:03.180Z,81.07
2018-05-04T04:58:03.133Z,81.45
2018-05-04T04:59:03.126Z,81.65
2018-05-04T05:00:03.035Z,81.65
2018-05-04T05:01:02.973Z,81.55
2018-05-04T05:02:02.926Z,81.45
2018-05-04T05:03:02.877Z,81.45
2018-05-04T05:04:02.859Z,81.07
2018-05-04T05:05:02.777Z,80.88
2018-05-04T05:06:02.749Z,81.26
2018-05-04T05:07:02.665Z,80.79
2018-05-04T05:08:02.622Z,80.60
2018-05-04T05:09:02.607Z,81.45
2018-05-04T05:10:02.550Z,81.26
2018-05-04T05:11:02.462Z,80.69
2018-05-04T05:12:02.420Z,81.17
2018-05-04T05:13:02.360Z,81.45
2018-05-04T05:14:02.364Z,81.36
2018-05-04T05:15:02.292Z,81.26
2018-05-04T05:16:02.204Z,81.07
2018-05-04T05:17:02.158Z,81.45
2018-05-04T05:18:02.105Z,81.65
2018-05-04T05:19:02.060Z,81.84
2018-05-04T05:20:02.045Z,81.93
2018-05-04T05:21:01.951Z,81.65
2018-05-04T05:22:01.909Z,82.12
2018-05-04T05:23:01.858Z,82.12
2018-05-04T05:24:01.800Z,82.50
2018-05-04T05:25:01.800Z,81.74
2018-05-04T05:26:01.702Z,81.55
2018-05-04T05:27:01.647Z,81.45
2018-05-04T05:28:01.590Z,81.36
2018-05-04T05:29:01.546Z,81.07
2018-05-04T05:30:01.526Z,80.93
2018-05-04T05:31:01.441Z,80.93
2018-05-04T05:32:01.390Z,80.51
2018-05-04T05:33:01.336Z,80.74
2018-05-04T05:34:01.284Z,80.74
2018-05-04T05:35:01.276Z,80.64
2018-05-04T05:36:01.191Z,80.64
2018-05-04T05:37:02.221Z,80.83
2018-05-04T05:38:01.082Z,80.55
2018-05-04T05:39:01.070Z,80.16
2018-05-04T05:40:00.976Z,79.69
2018-05-04T05:41:00.927Z,79.97
2018-05-04T05:42:00.882Z,80.35
2018-05-04T05:43:00.854Z,80.45
2018-05-04T05:44:00.812Z,80.35
2018-05-04T05:45:00.766Z,80.74
2018-05-04T05:46:00.668Z,80.55
2018-05-04T05:47:00.624Z,79.97
2018-05-04T05:48:00.570Z,80.07
2018-05-04T05:49:00.542Z,79.88
2018-05-04T05:50:00.507Z,79.31
2018-05-04T05:51:00.464Z,79.41
2018-05-04T05:52:00.456Z,79.50
2018-05-04T05:53:00.359Z,79.60
2018-05-04T05:54:00.262Z,79.22
2018-05-04T05:55:00.213Z,79.31
2018-05-04T05:56:00.200Z,79.31
2018-05-04T05:57:00.116Z,79.03
2018-05-04T05:58:00.094Z,79.22
2018-05-04T05:59:00.019Z,79.22
2018-05-04T06:00:00.006Z,79.12
2018-05-04T06:00:59.908Z,79.73
2018-05-04T06:01:59.902Z,79.35
2018-05-04T06:02:59.821Z,79.16
2018-05-04T06:03:59.815Z,79.54
2018-05-04T06:04:59.706Z,79.54
2018-05-04T06:05:59.661Z,79.54
2018-05-04T06:06:59.613Z,79.44
2018-05-04T06:07:59.558Z,79.54
2018-05-04T06:08:59.570Z,79.54
2018-05-04T06:09:59.454Z,79.35
2018-05-04T06:10:59.406Z,78.88
2018-05-04T06:11:59.352Z,78.02
2018-05-04T06:12:59.306Z,78.02
2018-05-04T06:13:59.302Z,78.69
2018-05-04T06:14:59.205Z,78.11
2018-05-04T06:15:59.160Z,78.30
2018-05-04T06:16:59.108Z,77.45
2018-05-04T06:17:59.059Z,77.64
2018-05-04T06:18:59.033Z,77.26
2018-05-04T06:19:58.956Z,77.55
2018-05-04T06:20:58.897Z,77.97
2018-05-04T06:21:58.855Z,77.55
2018-05-04T06:22:58.830Z,77.68
2018-05-04T06:23:58.781Z,77.49
2018-05-04T06:24:58.706Z,77.39
2018-05-04T06:25:58.643Z,77.30
2018-05-04T06:26:58.591Z,77.30
2018-05-04T06:27:58.550Z,77.39
2018-05-04T06:28:58.534Z,77.20
2018-05-04T06:29:58.510Z,77.49
2018-05-04T06:30:58.400Z,76.82
2018-05-04T06:31:58.342Z,77.49
2018-05-04T06:32:58.303Z,77.30
2018-05-04T06:33:58.275Z,77.39
2018-05-04T06:35:00.289Z,76.92
2018-05-04T06:35:58.145Z,77.05
2018-05-04T06:36:58.115Z,76.20
2018-05-04T06:37:58.049Z,76.20
2018-05-04T06:38:58.028Z,76.01
2018-05-04T06:39:57.943Z,76.01
2018-05-04T06:40:57.937Z,75.81
2018-05-04T06:41:57.880Z,76.29
2018-05-04T06:42:57.795Z,76.01
2018-05-04T06:43:57.782Z,75.91
2018-05-04T06:44:57.689Z,76.01
2018-05-04T06:45:57.647Z,76.01
2018-05-04T06:46:57.632Z,76.29
2018-05-04T06:47:57.574Z,75.53
2018-05-04T06:48:57.493Z,75.34
2018-05-04T06:49:57.444Z,75.76
2018-05-04T06:50:57.401Z,75.67
2018-05-04T06:51:57.378Z,75.57
2018-05-04T06:52:57.295Z,75.57
2018-05-04T06:53:57.246Z,75.09
2018-05-04T06:54:57.231Z,74.71
2018-05-04T06:55:57.179Z,75.67
2018-05-04T06:56:57.094Z,74.99
2018-05-04T06:57:57.048Z,74.52
2018-05-04T06:58:57.035Z,74.52
2018-05-04T06:59:56.951Z,75.09
2018-05-04T07:00:56.937Z,74.62
2018-05-04T07:01:56.853Z,74.62
2018-05-04T07:02:56.811Z,74.99
2018-05-04T07:03:56.751Z,74.75
2018-05-04T07:04:56.744Z,75.23
2018-05-04T07:05:56.649Z,75.23
2018-05-04T07:06:56.610Z,74.27
2018-05-04T07:07:56.553Z,74.56
2018-05-04T07:08:56.650Z,74.18
2018-05-04T07:09:56.497Z,74.27
2018-05-04T07:10:56.417Z,74.08
2018-05-04T07:11:56.372Z,73.61
2018-05-04T07:12:56.313Z,73.99
2018-05-04T07:13:56.294Z,74.27
2018-05-04T07:14:56.291Z,73.80
2018-05-04T07:15:56.159Z,73.99
2018-05-04T07:16:56.152Z,73.32
2018-05-04T07:17:56.062Z,72.85
2018-05-04T07:18:56.018Z,72.69
2018-05-04T07:19:55.962Z,73.07
2018-05-04T07:20:55.946Z,72.97
2018-05-04T07:21:55.871Z,72.50
2018-05-04T07:22:55.849Z,73.07
2018-05-04T07:23:55.765Z,73.45
2018-05-04T07:24:55.729Z,73.55
2018-05-04T07:25:55.670Z,72.60
2018-05-04T07:26:55.651Z,72.41
2018-05-04T07:27:55.573Z,72.69
2018-05-04T07:28:55.542Z,72.69
2018-05-04T07:29:55.514Z,72.78
2018-05-04T07:30:55.426Z,72.78
2018-05-04T07:31:55.374Z,73.49
2018-05-04T07:32:55.325Z,73.30
2018-05-04T07:33:55.275Z,73.58
2018-05-04T07:34:55.263Z,73.77
2018-05-04T07:35:55.265Z,72.53
2018-05-04T07:36:55.130Z,72.34
2018-05-04T07:37:55.093Z,72.25
2018-05-04T07:38:55.067Z,72.63
2018-05-04T07:39:54.982Z,72.25
2018-05-04T07:40:54.946Z,72.67
2018-05-04T07:41:54.891Z,73.14
2018-05-04T07:42:54.875Z,72.67
2018-05-04T07:43:54.789Z,71.43
2018-05-04T07:44:54.749Z,71.62
2018-05-04T07:45:54.740Z,69.90
2018-05-04T07:46:54.656Z,69.52
2018-05-04T07:47:54.601Z,69.17
2018-05-04T07:48:54.561Z,69.37
2018-05-04T07:49:54.502Z,70.03
2018-05-04T07:50:54.492Z,69.17
2018-05-04T07:51:54.403Z,69.65
2018-05-04T07:52:54.368Z,69.17
2018-05-04T07:53:54.314Z,68.79
2018-05-04T07:54:54.264Z,69.17
2018-05-04T07:55:54.252Z,69.11
2018-05-04T07:56:54.167Z,69.59
2018-05-04T07:57:54.150Z,67.97
2018-05-04T07:58:54.075Z,68.06
2018-05-04T07:59:54.020Z,67.91
2018-05-04T08:00:53.972Z,67.43
2018-05-04T08:01:53.931Z,66.66
2018-05-04T08:02:54.008Z,66.22
2018-05-04T08:03:53.829Z,65.45
2018-05-04T08:04:53.781Z,64.62
2018-05-04T08:05:53.737Z,64.25
2018-05-04T08:06:53.698Z,63.99
2018-05-04T08:07:53.678Z,63.70
2018-05-04T08:08:53.596Z,63.51
2018-05-04T08:09:53.556Z,62.55
2018-05-04T08:10:53.501Z,62.46
2018-05-04T08:11:53.528Z,61.72
2018-05-04T08:12:53.413Z,61.25
2018-05-04T08:13:53.369Z,61.37
2018-05-04T08:14:53.313Z,60.80
2018-05-04T08:15:53.267Z,60.80
2018-05-04T08:16:53.257Z,60.25
2018-05-04T08:17:53.176Z,59.71
2018-05-04T08:18:53.135Z,59.71
2018-05-04T08:19:53.083Z,58.59
2018-05-04T08:20:53.073Z,56.98
2018-05-04T08:21:52.990Z,56.31
2018-05-04T08:22:52.968Z,55.67
2018-05-04T08:23:52.900Z,54.61
2018-05-04T08:24:52.858Z,54.25
2018-05-04T08:25:52.840Z,53.58
2018-05-04T08:26:52.768Z,53.49
2018-05-04T08:27:52.716Z,53.61
2018-05-04T08:28:52.679Z,52.94
2018-05-04T08:29:52.632Z,52.97
2018-05-04T08:30:52.619Z,52.97
2018-05-04T08:31:52.543Z,53.09
2018-05-04T08:32:52.491Z,52.03
2018-05-04T08:33:52.487Z,50.97
2018-05-04T08:34:52.400Z,50.99
2018-05-04T08:35:52.357Z,49.65
2018-05-04T08:36:52.317Z,49.38
2018-05-04T08:37:52.270Z,48.44
2018-05-04T08:38:52.268Z,47.89
2018-05-04T08:39:52.180Z,47.44
2018-05-04T08:40:52.221Z,46.66
2018-05-04T08:41:52.128Z,45.84
2018-05-04T08:42:52.073Z,45.55
2018-05-04T08:43:52.052Z,44.32
2018-05-04T08:44:51.973Z,44.05
2018-05-04T08:45:51.925Z,43.47
2018-05-04T08:46:51.939Z,43.98
2018-05-04T08:47:51.843Z,43.13
2018-05-04T08:48:51.830Z,41.97
2018-05-04T08:49:51.756Z,40.63
2018-05-04T08:50:51.747Z,39.88
2018-05-04T08:51:51.671Z,40.17
2018-05-04T08:52:51.636Z,39.69
2018-05-04T08:53:51.630Z,39.37
2018-05-04T08:54:51.554Z,39.01
2018-05-04T08:55:51.508Z,39.11
2018-05-04T08:56:51.503Z,37.44
2018-05-04T08:57:51.432Z,38.21
2018-05-04T08:58:51.387Z,38.70
2018-05-04T08:59:51.357Z,38.21
2018-05-04T09:00:51.310Z,37.73
2018-05-04T09:01:51.303Z,37.17
2018-05-04T09:02:51.224Z,37.63
2018-05-04T09:03:51.181Z,37.63
2018-05-04T09:04:51.144Z,37.73
2018-05-04T09:05:51.113Z,37.65
2018-05-04T09:06:51.121Z,37.44
2018-05-04T09:07:51.025Z,36.65
2018-05-04T09:08:50.988Z,35.57
2018-05-04T09:09:50.950Z,38.35
2018-05-04T09:10:50.905Z,39.51
2018-05-04T09:11:50.909Z,39.61
2018-05-04T09:12:50.844Z,38.56
2018-05-04T09:13:50.793Z,37.98
2018-05-04T09:14:50.745Z,37.60
2018-05-04T09:15:50.706Z,35.55
2018-05-04T09:16:50.698Z,38.45
2018-05-04T09:17:50.679Z,38.18
2018-05-04T09:18:50.649Z,37.70
2018-05-04T09:19:50.550Z,37.81
2018-05-04T09:20:50.512Z,38.10
2018-05-04T09:21:50.464Z,38.29
2018-05-04T09:22:50.538Z,37.44
2018-05-04T09:23:50.387Z,36.57
2018-05-04T09:24:50.444Z,36.18
2018-05-04T09:25:50.418Z,35.91
2018-05-04T09:26:50.288Z,35.72
2018-05-04T09:27:50.227Z,34.94
2018-05-04T09:28:50.189Z,35.83
2018-05-04T09:29:50.180Z,35.25
2018-05-04T09:30:50.189Z,35.07
2018-05-04T09:31:50.074Z,35.27
2018-05-04T09:32:50.034Z,34.69
2018-05-04T09:33:49.997Z,35.93
2018-05-04T09:34:50.030Z,35.54
2018-05-04T09:35:49.913Z,35.56
2018-05-04T09:36:49.877Z,35.46
2018-05-04T09:37:49.845Z,34.51
2018-05-04T09:38:49.797Z,34.80
2018-05-04T09:39:49.801Z,33.91
2018-05-04T09:40:49.722Z,32.06
2018-05-04T09:41:49.688Z,35.44
2018-05-04T09:42:49.644Z,35.73
2018-05-04T09:43:49.698Z,35.83
2018-05-04T09:44:49.608Z,34.47
2018-05-04T09:45:49.527Z,34.59
2018-05-04T09:46:49.489Z,34.39
2018-05-04T09:47:49.449Z,34.69
2018-05-04T09:48:49.410Z,34.41
2018-05-04T09:49:49.407Z,33.83
2018-05-04T09:50:49.369Z,33.15
2018-05-04T09:51:49.298Z,32.67
2018-05-04T09:52:49.257Z,32.37
2018-05-04T09:53:49.383Z,32.39
2018-05-04T09:54:49.180Z,32.87
2018-05-04T09:55:49.190Z,33.17
2018-05-04T09:56:49.109Z,33.26
2018-05-04T09:57:49.078Z,31.73
2018-05-04T09:58:49.027Z,31.53
2018-05-04T09:59:48.999Z,31.82
2018-05-04T10:00:49.000Z,31.24
2018-05-04T10:01:48.918Z,30.76
2018-05-04T10:02:48.874Z,31.44
2018-05-04T10:03:48.842Z,31.63
2018-05-04T10:04:48.809Z,31.15
2018-05-04T10:05:48.802Z,31.53
2018-05-04T10:06:48.731Z,31.15
2018-05-04T10:07:48.689Z,30.95
2018-05-04T10:08:48.649Z,30.27
2018-05-04T10:09:48.615Z,30.27
2018-05-04T10:10:48.631Z,30.47
2018-05-04T10:11:48.537Z,31.53
2018-05-04T10:12:48.506Z,31.24
2018-05-04T10:13:48.465Z,31.16
2018-05-04T10:14:48.425Z,31.74
2018-05-04T10:15:48.444Z,30.87
2018-05-04T10:16:48.351Z,30.09
2018-05-04T10:17:48.313Z,30.50
2018-05-04T10:18:48.276Z,30.88
2018-05-04T10:19:48.240Z,30.50
2018-05-04T10:20:48.242Z,30.11
2018-05-04T10:21:48.163Z,30.40
2018-05-04T10:22:48.128Z,30.01
2018-05-04T10:23:48.097Z,30.12
2018-05-04T10:24:48.055Z,30.21
2018-05-04T10:25:48.054Z,30.80
2018-05-04T10:26:47.979Z,30.50
2018-05-04T10:27:47.960Z,31.27
2018-05-04T10:28:47.939Z,29.91
2018-05-04T10:29:47.866Z,30.01
2018-05-04T10:30:47.835Z,29.62
2018-05-04T10:31:47.798Z,29.52
2018-05-04T10:32:47.798Z,29.91
2018-05-04T10:33:47.722Z,29.61
2018-05-04T10:34:47.717Z,29.51
2018-05-04T10:35:47.653Z,30.09
2018-05-04T10:36:47.610Z,30.00
2018-05-04T10:37:47.570Z,30.00
2018-05-04T10:38:47.667Z,29.33
2018-05-04T10:39:47.504Z,29.02
2018-05-04T10:40:47.468Z,29.04
2018-05-04T10:41:47.425Z,28.55
2018-05-04T10:42:47.387Z,29.02
2018-05-04T10:43:47.394Z,30.69
2018-05-04T10:44:47.317Z,29.71
2018-05-04T10:45:47.280Z,30.88
2018-05-04T10:46:47.240Z,31.27
2018-05-04T10:47:47.206Z,30.11
2018-05-04T10:48:47.204Z,29.93
2018-05-04T10:49:47.169Z,29.64
2018-05-04T10:50:47.095Z,29.74
2018-05-04T10:51:47.098Z,29.93
2018-05-04T10:52:47.146Z,29.83
2018-05-04T10:53:47.000Z,29.74
2018-05-04T10:54:46.993Z,28.07
2018-05-04T10:55:46.924Z,28.34
2018-05-04T10:56:48.118Z,30.29
2018-05-04T10:57:46.878Z,31.26
2018-05-04T10:58:46.815Z,29.88
2018-05-04T10:59:46.781Z,27.83
2018-05-04T11:00:46.937Z,28.79
2018-05-04T11:01:46.711Z,30.04
2018-05-04T11:02:46.700Z,32.54
2018-05-04T11:03:46.623Z,30.20
2018-05-04T11:04:46.582Z,33.87
2018-05-04T11:05:46.544Z,32.64
2018-05-04T11:06:46.556Z,31.68
2018-05-04T11:07:46.479Z,31.60
2018-05-04T11:08:47.515Z,30.73
2018-05-04T11:09:46.419Z,31.91
2018-05-04T11:10:46.369Z,31.24
2018-05-04T11:11:46.365Z,31.53
2018-05-04T11:12:46.286Z,31.26
2018-05-04T11:13:46.248Z,30.58
2018-05-04T11:14:46.253Z,30.38
2018-05-04T11:15:46.182Z,29.80
2018-05-04T11:16:46.165Z,30.01
2018-05-04T11:17:46.105Z,27.64
2018-05-04T11:18:46.105Z,30.16
2018-05-04T11:19:46.035Z,31.52
2018-05-04T11:20:46.003Z,30.37
2018-05-04T11:21:45.978Z,30.27
2018-05-04T11:22:45.925Z,30.29
2018-05-04T11:23:45.929Z,30.40
2018-05-04T11:24:45.852Z,29.72
2018-05-04T11:25:45.811Z,30.11
2018-05-04T11:26:45.779Z,31.18
2018-05-04T11:27:45.742Z,30.98
2018-05-04T11:28:45.741Z,29.74
2018-05-04T11:29:45.693Z,29.35
2018-05-04T11:30:45.636Z,29.85
2018-05-04T11:31:45.594Z,28.96
2018-05-04T11:32:45.560Z,29.25
2018-05-04T11:33:45.555Z,28.08
2018-05-04T11:34:45.490Z,28.47
2018-05-04T11:35:45.450Z,28.08
2018-05-04T11:36:45.432Z,28.08
2018-05-04T11:37:45.400Z,28.66
2018-05-04T11:38:45.378Z,28.66
2018-05-04T11:39:45.308Z,29.16
2018-05-04T11:40:45.341Z,28.68
2018-05-04T11:41:45.232Z,28.29
2018-05-04T11:42:45.202Z,27.89
2018-05-04T11:43:45.167Z,28.58
2018-05-04T11:44:45.130Z,28.97
2018-05-04T11:45:45.123Z,28.19
2018-05-04T11:46:45.059Z,28.96
2018-05-04T11:47:45.020Z,28.68
2018-05-04T11:48:45.034Z,28.57
2018-05-04T11:49:44.944Z,28.66
2018-05-04T11:50:44.904Z,28.39
2018-05-04T11:51:44.905Z,28.00
2018-05-04T11:52:44.836Z,28.49
2018-05-04T11:53:44.798Z,28.38
2018-05-04T11:54:44.765Z,28.18
2018-05-04T11:55:44.734Z,28.47
2018-05-04T11:56:44.728Z,28.18
2018-05-04T11:57:44.742Z,28.47
2018-05-04T11:58:44.619Z,28.57
2018-05-04T11:59:44.642Z,29.44
2018-05-04T12:00:44.547Z,29.44
2018-05-04T12:01:44.513Z,29.04
2018-05-04T12:02:44.475Z,29.64
2018-05-04T12:03:44.445Z,29.15
2018-05-04T12:04:44.494Z,28.47
2018-05-04T12:05:44.367Z,28.57
2018-05-04T12:06:44.374Z,28.96
2018-05-04T12:07:44.316Z,28.18
2018-05-04T12:08:44.257Z,27.97
2018-05-04T12:09:44.223Z,27.97
2018-05-04T12:10:44.213Z,28.17
2018-05-04T12:11:44.187Z,28.17
2018-05-04T12:12:44.120Z,27.18
2018-05-04T12:13:44.082Z,27.43
2018-05-04T12:14:44.044Z,29.95
2018-05-04T12:15:44.015Z,30.44
2018-05-04T12:16:44.105Z,30.94
2018-05-04T12:17:43.935Z,30.26
2018-05-04T12:18:43.937Z,29.60
2018-05-04T12:19:43.899Z,28.93
2018-05-04T12:20:43.831Z,29.71
2018-05-04T12:21:43.795Z,29.22
2018-05-04T12:22:43.762Z,29.22
2018-05-04T12:23:43.723Z,30.29
2018-05-04T12:24:43.719Z,28.40
2018-05-04T12:25:43.644Z,31.70
2018-05-04T12:26:43.613Z,30.26
2018-05-04T12:27:43.616Z,30.08
2018-05-04T12:28:43.535Z,29.30
2018-05-04T12:29:43.498Z,28.41
2018-05-04T12:30:43.504Z,29.10
2018-05-04T12:31:43.438Z,30.07
2018-05-04T12:32:43.391Z,29.68
2018-05-04T12:33:43.370Z,29.60
2018-05-04T12:34:43.324Z,29.21
2018-05-04T12:35:43.312Z,29.61
2018-05-04T12:36:43.252Z,28.43
2018-05-04T12:37:43.253Z,28.80
2018-05-04T12:38:43.174Z,31.81
2018-05-04T12:39:43.139Z,31.63
2018-05-04T12:40:43.104Z,29.58
2018-05-04T12:41:43.074Z,30.16
2018-05-04T12:42:43.075Z,29.88
2018-05-04T12:43:42.993Z,30.08
2018-05-04T12:44:42.965Z,29.22
2018-05-04T12:45:42.977Z,29.51
2018-05-04T12:46:42.897Z,30.00
2018-05-04T12:47:42.914Z,29.71
2018-05-04T12:48:42.814Z,28.75
2018-05-04T12:49:42.803Z,28.26
2018-05-04T12:50:42.766Z,28.45
2018-05-04T12:51:42.708Z,28.55